Time;durP1;ratioP1;P1;durP2;ratioP2;P2;SDS_P1;SDS_P2;PMS_P1;PMS_P2;Temp;Humidity;BMP_temperature;BMP_pressure;BME280_temperature;BME280_humidity;BME280_pressure;Samples;Min_cycle;Max_cycle;Signal;HPM_P1;HPM_P2
2024/04/05 00:00:47;;;;;;;3.35;1.80;;;;;;;12.94;60.44;92847.50;2027834;70;20152;-75
2024/04/05 00:03:12;;;;;;;4.25;1.60;;;;;;;12.91;61.09;92838.16;2028385;70;20177;-75
2024/04/05 00:05:38;;;;;;;2.83;1.48;;;;;;;12.72;62.93;92844.91;2027803;70;20148;-77
2024/04/05 00:08:04;;;;;;;3.78;1.92;;;;;;;12.80;61.98;92841.81;2027936;70;20502;-74
2024/04/05 00:10:30;;;;;;;3.15;1.58;;;;;;;12.91;61.48;92846.63;2028146;70;20197;-75
2024/04/05 00:12:57;;;;;;;5.35;1.60;;;;;;;12.84;61.40;92839.19;2028164;70;20184;-74
2024/04/05 00:15:23;;;;;;;3.15;1.65;;;;;;;12.88;61.90;92833.78;2027709;70;20642;-76
2024/04/05 00:17:48;;;;;;;3.60;1.75;;;;;;;12.45;62.18;92844.78;2028129;70;20217;-76
2024/04/05 00:20:14;;;;;;;2.50;1.70;;;;;;;12.65;61.67;92848.03;2028346;70;20160;-75
2024/04/05 00:22:40;;;;;;;3.00;1.70;;;;;;;12.60;62.28;92847.06;2028178;70;20140;-75
2024/04/05 00:25:06;;;;;;;3.80;1.60;;;;;;;12.75;61.70;92848.59;2028037;70;20200;-75
2024/04/05 00:27:32;;;;;;;3.38;2.08;;;;;;;12.82;61.71;92846.81;2027521;70;20530;-75
2024/04/05 00:29:57;;;;;;;2.95;1.70;;;;;;;12.83;61.54;92849.03;2028306;70;20616;-78
2024/04/05 00:32:23;;;;;;;1.77;1.20;;;;;;;12.79;61.25;92846.00;2028343;70;20184;-75
2024/04/05 00:34:49;;;;;;;2.55;0.93;;;;;;;12.92;58.92;92847.38;2028172;70;20281;-73
2024/04/05 00:37:15;;;;;;;1.63;1.20;;;;;;;12.89;59.61;92852.19;2028184;70;20167;-74
2024/04/05 00:39:40;;;;;;;2.17;1.38;;;;;;;12.66;60.65;92855.16;2028236;70;20610;-76
2024/04/05 00:42:06;;;;;;;2.67;1.40;;;;;;;12.68;60.67;92844.69;2027755;70;20152;-73
2024/04/05 00:44:32;;;;;;;3.90;1.30;;;;;;;12.64;60.56;92846.53;2028074;70;20141;-75
2024/04/05 00:46:58;;;;;;;1.88;1.27;;;;;;;12.46;61.33;92829.31;2028040;70;20149;-76
2024/04/05 00:49:25;;;;;;;6.88;1.55;;;;;;;12.62;60.74;92837.97;2028118;70;20616;-75
2024/04/05 00:51:51;;;;;;;2.72;1.33;;;;;;;12.69;60.69;92848.22;2028022;70;20188;-75
2024/04/05 00:54:19;;;;;;;2.17;1.40;;;;;;;12.75;60.05;92848.59;2027589;70;20201;-76
2024/04/05 00:56:47;;;;;;;2.55;1.33;;;;;;;12.53;61.59;92847.34;2027690;70;20179;-76
2024/04/05 00:59:13;;;;;;;2.60;1.25;;;;;;;12.55;61.77;92841.81;2028263;70;20212;-74
2024/04/05 01:01:41;;;;;;;2.03;1.15;;;;;;;12.63;62.27;92856.38;2027582;70;20164;-74
2024/04/05 01:04:06;;;;;;;3.13;1.30;;;;;;;12.72;61.85;92849.81;2027581;70;20148;-78
2024/04/05 01:06:32;;;;;;;2.00;1.20;;;;;;;12.65;61.67;92856.50;2028294;70;20172;-76
2024/04/05 01:08:59;;;;;;;5.13;1.30;;;;;;;12.46;61.82;92849.84;2028341;70;20175;-74
2024/04/05 01:11:25;;;;;;;2.33;1.50;;;;;;;12.42;61.79;92846.78;2028061;70;20599;-75
2024/04/05 01:13:51;;;;;;;3.72;1.30;;;;;;;12.65;60.61;92845.94;2028285;70;20570;-74
2024/04/05 01:16:16;;;;;;;3.03;1.30;;;;;;;12.69;61.11;92845.41;2028002;70;20180;-74
2024/04/05 01:18:43;;;;;;;2.08;1.30;;;;;;;12.38;62.06;92857.13;2028800;70;20679;-76
2024/04/05 01:21:09;;;;;;;2.05;1.40;;;;;;;12.51;61.56;92853.63;2028620;70;20165;-74
2024/04/05 01:23:42;;;;;;;2.20;1.40;;;;;;;12.58;61.28;92866.72;2027836;70;20229;-75
2024/04/05 01:26:08;;;;;;;2.08;1.65;;;;;;;12.46;62.22;92861.13;2028323;70;20149;-76
2024/04/05 01:28:34;;;;;;;3.17;1.40;;;;;;;12.57;61.85;92867.34;2027946;70;20160;-77
2024/04/05 01:31:00;;;;;;;2.15;1.40;;;;;;;12.59;61.22;92873.09;2027437;70;20157;-75
2024/04/05 01:33:26;;;;;;;2.53;1.20;;;;;;;12.63;60.94;92867.69;2028352;70;20145;-76
2024/04/05 01:35:52;;;;;;;2.92;1.48;;;;;;;12.65;61.43;92871.34;2028235;70;20273;-76
2024/04/05 01:38:18;;;;;;;3.67;1.50;;;;;;;12.68;60.53;92872.94;2028208;70;20190;-75
2024/04/05 01:40:43;;;;;;;4.28;1.52;;;;;;;12.58;61.53;92866.00;2028321;70;20152;-76
2024/04/05 01:43:09;;;;;;;2.58;1.38;;;;;;;12.48;61.47;92856.94;2028324;70;20137;-76
2024/04/05 01:45:35;;;;;;;2.83;1.30;;;;;;;12.62;62.05;92864.13;2027927;70;20149;-76
2024/04/05 01:48:01;;;;;;;4.53;1.60;;;;;;;12.60;61.48;92860.44;2028395;70;20156;-76
2024/04/05 01:50:27;;;;;;;2.08;1.40;;;;;;;12.12;63.61;92854.25;2028275;70;20196;-77
2024/04/05 01:52:53;;;;;;;3.47;1.20;;;;;;;12.33;62.47;92842.03;2028300;70;20248;-76
2024/04/05 01:55:19;;;;;;;2.88;1.50;;;;;;;12.47;62.85;92847.75;2028163;70;20148;-76
2024/04/05 01:57:44;;;;;;;4.13;1.50;;;;;;;12.34;62.39;92834.31;2027317;70;20571;-75
2024/04/05 02:00:10;;;;;;;3.88;1.40;;;;;;;12.32;62.68;92848.28;2027803;70;20181;-76
2024/04/05 02:02:41;;;;;;;1.52;1.30;;;;;;;12.27;63.45;92838.13;2027514;70;20145;-75
2024/04/05 02:05:07;;;;;;;2.17;1.45;;;;;;;12.36;63.02;92843.59;2027700;70;20200;-74
2024/04/05 02:07:33;;;;;;;4.28;1.25;;;;;;;12.35;63.04;92828.03;2028240;70;20563;-76
2024/04/05 02:09:58;;;;;;;7.53;1.55;;;;;;;12.28;63.83;92833.94;2025258;70;20180;-78
2024/04/05 02:12:28;;;;;;;4.40;1.35;;;;;;;12.35;63.64;92842.13;2028606;70;20195;-76
2024/04/05 02:14:54;;;;;;;4.45;1.80;;;;;;;12.40;63.21;92843.84;2028785;70;20202;-76
2024/04/05 02:17:21;;;;;;;2.38;1.40;;;;;;;12.22;64.31;92831.50;2028396;70;20261;-76
2024/04/05 02:19:47;;;;;;;2.90;1.40;;;;;;;11.94;65.11;92847.56;2028653;70;20232;-76
2024/04/05 02:22:13;;;;;;;3.72;1.58;;;;;;;11.62;66.04;92858.38;2028595;70;20176;-76
2024/04/05 02:24:38;;;;;;;2.65;1.55;;;;;;;11.86;65.13;92856.28;2028575;70;20523;-76
2024/04/05 02:27:04;;;;;;;2.42;1.38;;;;;;;12.07;64.50;92860.28;2028729;70;20172;-75
2024/04/05 02:29:31;;;;;;;2.88;1.60;;;;;;;11.96;63.54;92853.34;2028368;70;20192;-76
2024/04/05 02:31:57;;;;;;;2.25;1.60;;;;;;;11.57;65.97;92858.75;2028771;70;20148;-75
2024/04/05 02:34:23;;;;;;;4.68;1.50;;;;;;;11.82;64.98;92856.06;2028554;70;20486;-74
2024/04/05 02:36:52;;;;;;;2.97;1.52;;;;;;;12.00;64.23;92864.09;2028822;70;20195;-75
2024/04/05 02:39:18;;;;;;;2.22;1.65;;;;;;;12.03;64.72;92852.31;2028855;70;20217;-76
2024/04/05 02:41:47;;;;;;;2.58;1.50;;;;;;;12.05;64.52;92849.63;2028680;70;20504;-76
2024/04/05 02:44:13;;;;;;;3.22;1.90;;;;;;;11.66;65.15;92838.88;2028811;70;20181;-77
2024/04/05 02:46:39;;;;;;;4.78;1.70;;;;;;;11.94;64.55;92845.47;2028735;70;20149;-77
2024/04/05 02:49:05;;;;;;;3.72;1.70;;;;;;;12.06;64.44;92851.09;2028469;70;20144;-77
2024/04/05 02:51:31;;;;;;;6.57;1.95;;;;;;;12.05;64.99;92854.50;2028521;70;20175;-75
2024/04/05 02:53:57;;;;;;;3.80;1.40;;;;;;;12.12;64.20;92848.59;2028719;70;20673;-75
2024/04/05 02:56:23;;;;;;;4.13;1.50;;;;;;;12.03;64.42;92849.50;2028643;70;20650;-75
2024/04/05 02:58:48;;;;;;;3.55;1.52;;;;;;;12.15;63.86;92853.03;2028505;70;20163;-75
2024/04/05 03:01:14;;;;;;;2.72;1.50;;;;;;;12.11;64.54;92846.41;2028695;70;20153;-75
2024/04/05 03:03:39;;;;;;;3.78;2.03;;;;;;;12.11;64.80;92857.69;2028877;70;20574;-74
2024/04/05 03:06:05;;;;;;;2.00;1.33;;;;;;;12.12;65.41;92850.69;2028438;70;20172;-74
2024/04/05 03:08:34;;;;;;;6.47;3.13;;;;;;;12.04;65.15;92842.50;2028655;70;20145;-74
2024/04/05 03:11:00;;;;;;;3.38;2.33;;;;;;;12.18;62.63;92845.41;2028853;70;20149;-75
2024/04/05 03:13:25;;;;;;;5.55;2.00;;;;;;;11.88;64.77;92841.56;2028488;70;20149;-76
2024/04/05 03:15:51;;;;;;;4.43;1.58;;;;;;;12.05;64.50;92848.88;2028734;70;20151;-75
2024/04/05 03:18:17;;;;;;;4.18;1.63;;;;;;;11.94;65.95;92856.75;2028725;70;20184;-75
2024/04/05 03:20:43;;;;;;;6.10;1.67;;;;;;;11.99;65.28;92863.38;2024973;70;20172;-75
2024/04/05 03:23:10;;;;;;;6.18;1.73;;;;;;;12.01;64.46;92866.31;2025152;70;20133;-76
2024/04/05 03:25:37;;;;;;;3.33;1.70;;;;;;;12.03;64.73;92874.88;2028497;70;20167;-76
2024/04/05 03:28:04;;;;;;;6.63;1.70;;;;;;;12.00;64.33;92875.38;2028437;70;20305;-76
2024/04/05 03:30:29;;;;;;;4.03;1.65;;;;;;;11.93;65.74;92877.84;2028441;70;20167;-77
2024/04/05 03:32:56;;;;;;;2.88;1.70;;;;;;;11.99;65.35;92893.66;2028163;70;20121;-76
2024/04/05 03:35:22;;;;;;;3.40;1.67;;;;;;;11.68;66.10;92886.19;2028713;70;20141;-75
2024/04/05 03:37:52;;;;;;;5.10;1.70;;;;;;;11.83;65.67;92888.53;2026167;70;20564;-75
2024/04/05 03:40:18;;;;;;;4.57;2.30;;;;;;;11.96;65.45;92898.47;2028995;70;20140;-74
2024/04/05 03:42:43;;;;;;;4.22;2.83;;;;;;;11.92;65.72;92901.06;2029645;70;20220;-77
2024/04/05 03:45:09;;;;;;;4.68;2.00;;;;;;;12.03;65.21;92908.75;2029363;70;20195;-75
2024/04/05 03:47:35;;;;;;;6.82;2.80;;;;;;;11.68;66.13;92911.56;2029094;70;20187;-76
2024/04/05 03:50:00;;;;;;;4.57;2.35;;;;;;;11.81;65.96;92915.84;2028546;70;20239;-76
2024/04/05 03:52:26;;;;;;;2.95;1.70;;;;;;;11.76;66.11;92919.78;2028498;70;20153;-77
2024/04/05 03:54:51;;;;;;;2.90;2.00;;;;;;;11.86;65.66;92915.50;2028427;70;20188;-74
2024/04/05 03:57:21;;;;;;;2.67;1.70;;;;;;;11.81;66.71;92913.78;2028128;70;20153;-75
2024/04/05 03:59:47;;;;;;;7.15;2.20;;;;;;;11.73;66.30;92899.22;2028523;70;20149;-74
2024/04/05 04:02:12;;;;;;;5.00;2.05;;;;;;;11.84;65.95;92915.41;2030435;70;20702;-75
2024/04/05 04:04:38;;;;;;;6.05;2.10;;;;;;;11.81;65.92;92922.22;2027954;70;20140;-76
2024/04/05 04:07:05;;;;;;;4.40;2.10;;;;;;;11.89;65.77;92925.56;2028609;70;20186;-76
2024/04/05 04:09:31;;;;;;;4.38;2.10;;;;;;;11.89;66.35;92931.22;2028288;70;20180;-76
2024/04/05 04:11:57;;;;;;;7.35;2.60;;;;;;;11.74;65.66;92922.50;2028720;70;20252;-75
2024/04/05 04:14:23;;;;;;;3.88;2.13;;;;;;;11.73;66.62;92924.59;2027992;70;20176;-74
2024/04/05 04:16:50;;;;;;;6.50;2.28;;;;;;;11.63;66.04;92915.50;2028712;70;20682;-75
2024/04/05 04:19:16;;;;;;;3.83;2.08;;;;;;;11.71;67.28;92924.44;2028647;70;20236;-75
2024/04/05 04:21:42;;;;;;;3.85;2.00;;;;;;;11.74;67.02;92933.78;2028826;70;20149;-76
2024/04/05 04:24:09;;;;;;;3.75;2.20;;;;;;;11.63;66.57;92938.78;2028711;70;20156;-76
2024/04/05 04:26:35;;;;;;;6.35;2.38;;;;;;;11.56;66.73;92942.59;2028366;70;20220;-77
2024/04/05 04:29:03;;;;;;;5.53;2.30;;;;;;;11.56;66.66;92942.59;2027764;70;20213;-74
2024/04/05 04:31:29;;;;;;;6.18;2.25;;;;;;;11.68;66.39;92942.59;2028571;70;20232;-75
2024/04/05 04:33:54;;;;;;;6.03;2.42;;;;;;;11.71;65.99;92947.00;2027911;70;20490;-76
2024/04/05 04:36:22;;;;;;;6.85;2.10;;;;;;;11.67;67.46;92946.75;2027952;70;20155;-75
2024/04/05 04:38:48;;;;;;;4.93;2.10;;;;;;;11.68;66.14;92949.00;2025573;70;20565;-75
2024/04/05 04:41:14;;;;;;;5.40;1.95;;;;;;;11.63;66.15;92932.41;2028598;70;20622;-75
2024/04/05 04:43:41;;;;;;;3.38;2.00;;;;;;;11.68;66.19;92946.16;2028102;70;20260;-74
2024/04/05 04:46:08;;;;;;;3.53;1.80;;;;;;;11.79;66.23;92941.13;2027965;70;20148;-75
2024/04/05 04:48:35;;;;;;;5.22;1.92;;;;;;;11.77;66.18;92946.63;2028647;70;20163;-76
2024/04/05 04:51:00;;;;;;;3.83;1.90;;;;;;;11.73;65.74;92943.56;2028320;70;20152;-76
2024/04/05 04:53:26;;;;;;;4.25;2.30;;;;;;;11.59;66.75;92949.09;2028160;70;20202;-76
2024/04/05 04:55:51;;;;;;;7.60;2.78;;;;;;;11.61;66.38;92944.31;2028035;70;20243;-74
2024/04/05 04:58:18;;;;;;;6.88;2.85;;;;;;;11.39;67.20;92952.16;2028297;70;20599;-76
2024/04/05 05:00:45;;;;;;;13.00;3.45;;;;;;;11.50;67.63;92953.53;2028506;70;20256;-76
2024/04/05 05:03:11;;;;;;;7.22;3.15;;;;;;;11.64;66.23;92953.66;2027884;70;20164;-75
2024/04/05 05:05:40;;;;;;;5.50;2.60;;;;;;;11.61;66.17;92940.75;2028079;70;20495;-76
2024/04/05 05:08:12;;;;;;;5.43;2.72;;;;;;;11.45;67.73;92941.25;2028419;70;20248;-76
2024/04/05 05:10:42;;;;;;;4.25;2.70;;;;;;;11.49;67.69;92937.94;2027843;70;20141;-76
2024/04/05 05:13:11;;;;;;;7.70;2.58;;;;;;;11.58;66.57;92927.88;2028296;70;20137;-75
2024/04/05 05:15:41;;;;;;;8.30;2.50;;;;;;;11.33;67.12;92912.31;2028424;70;20213;-74
2024/04/05 05:18:10;;;;;;;6.85;2.78;;;;;;;11.50;67.23;92938.66;2028126;70;20145;-74
2024/04/05 05:20:43;;;;;;;4.80;2.50;;;;;;;11.57;66.50;92938.44;2028080;70;20507;-74
2024/04/05 05:23:09;;;;;;;;;;;;;;;11.42;67.48;92938.91;2028522;70;20213;-74
2024/04/05 05:25:34;;;;;;;3.88;2.67;;;;;;;11.61;66.25;92949.22;2028385;70;20515;-74
2024/04/05 05:28:04;;;;;;;4.63;2.58;;;;;;;11.55;66.44;92960.88;2028159;70;20237;-75
2024/04/05 05:30:30;;;;;;;4.50;2.40;;;;;;;11.52;66.21;92942.34;2028177;70;20160;-75
2024/04/05 05:32:56;;;;;;;5.35;3.38;;;;;;;11.64;66.39;92959.28;2028258;70;20144;-75
2024/04/05 05:35:23;;;;;;;6.45;3.55;;;;;;;11.10;67.96;92951.75;2028224;70;20145;-76
2024/04/05 05:37:49;;;;;;;9.10;4.00;;;;;;;11.16;67.82;92954.94;2027877;70;20141;-75
2024/04/05 05:40:15;;;;;;;8.35;3.72;;;;;;;11.52;66.63;92955.72;2027694;70;20666;-75
2024/04/05 05:42:40;;;;;;;12.50;3.75;;;;;;;11.56;66.87;92950.34;2028283;70;20618;-75
2024/04/05 05:45:06;;;;;;;6.75;3.40;;;;;;;11.63;65.99;92947.25;2028858;70;20289;-76
2024/04/05 05:47:32;;;;;;;7.30;4.07;;;;;;;11.35;65.57;92940.63;2028645;70;20175;-75
2024/04/05 05:49:57;;;;;;;18.13;5.93;;;;;;;11.70;66.65;92959.66;2028085;70;20143;-75
2024/04/05 05:52:23;;;;;;;9.43;6.32;;;;;;;11.86;65.89;92949.34;2028591;70;20546;-74
2024/04/05 05:54:48;;;;;;;13.50;6.88;;;;;;;11.90;66.40;92943.97;2028593;70;20210;-74
2024/04/05 05:57:15;;;;;;;12.52;6.32;;;;;;;12.02;66.42;92943.97;2028337;70;20169;-76
2024/04/05 05:59:41;;;;;;;10.48;6.00;;;;;;;12.08;66.55;92952.78;2028309;70;20231;-76
2024/04/05 06:02:06;;;;;;;13.45;6.60;;;;;;;12.04;67.05;92957.44;2028493;70;20168;-76
2024/04/05 06:04:32;;;;;;;10.43;5.57;;;;;;;12.17;66.53;92963.19;2028696;70;20165;-76
2024/04/05 06:06:59;;;;;;;13.20;6.03;;;;;;;12.16;65.30;92961.00;2028761;70;20148;-73
2024/04/05 06:09:25;;;;;;;15.13;6.18;;;;;;;12.19;65.23;92959.78;2028647;70;20582;-73
2024/04/05 06:11:52;;;;;;;17.17;6.05;;;;;;;12.44;64.31;92973.94;2028826;70;20141;-76
2024/04/05 06:14:18;;;;;;;11.35;5.95;;;;;;;12.45;63.74;92983.88;2022641;70;20290;-75
2024/04/05 06:16:44;;;;;;;14.77;6.47;;;;;;;12.43;64.84;92977.41;2028844;70;20168;-75
2024/04/05 06:19:10;;;;;;;15.13;6.03;;;;;;;12.48;65.33;92967.06;2028669;70;20267;-75
2024/04/05 06:21:35;;;;;;;14.18;6.13;;;;;;;12.66;63.29;92985.06;2028661;70;20248;-74
2024/04/05 06:24:01;;;;;;;14.82;5.47;;;;;;;12.71;63.49;92981.84;2025168;70;20149;-74
2024/04/05 06:26:27;;;;;;;10.07;3.67;;;;;;;12.31;64.46;92976.66;2029073;70;20141;-74
2024/04/05 06:28:52;;;;;;;8.18;4.05;;;;;;;12.54;63.85;92978.72;2028875;70;20155;-74
2024/04/05 06:31:18;;;;;;;6.57;3.92;;;;;;;12.72;63.69;92982.59;2022065;71;20167;-75
2024/04/05 06:33:45;;;;;;;9.52;4.38;;;;;;;12.61;65.91;92986.19;2022603;71;20318;-75
2024/04/05 06:36:11;;;;;;;8.40;4.15;;;;;;;12.76;66.07;92984.91;2022440;71;20169;-75
2024/04/05 06:38:36;;;;;;;9.80;4.60;;;;;;;12.86;65.20;92985.50;2022506;71;20129;-74
2024/04/05 06:41:02;;;;;;;10.70;4.40;;;;;;;12.80;64.14;92983.06;2022086;71;20572;-76
2024/04/05 06:43:29;;;;;;;9.73;4.63;;;;;;;12.76;64.58;92987.75;2022208;71;20256;-77
2024/04/05 06:45:55;;;;;;;7.85;4.30;;;;;;;12.65;64.26;92983.59;2022662;71;20192;-77
2024/04/05 06:48:21;;;;;;;7.63;3.97;;;;;;;12.41;64.21;92985.72;2022479;71;20157;-77
2024/04/05 06:50:51;;;;;;;14.05;6.18;;;;;;;12.61;64.48;92984.09;2022076;71;20171;-76
2024/04/05 06:53:20;;;;;;;18.30;10.73;;;;;;;12.59;64.02;92981.16;2022674;71;20160;-76
2024/04/05 06:55:49;;;;;;;21.25;8.93;;;;;;;12.70;63.27;92993.78;2022020;71;20153;-76
2024/04/05 06:58:15;;;;;;;19.35;7.50;;;;;;;12.74;63.92;92988.38;2022406;71;20175;-75
2024/04/05 07:00:45;;;;;;;23.23;12.23;;;;;;;12.88;64.60;92986.34;2022492;71;20229;-75
2024/04/05 07:03:12;;;;;;;12.13;5.50;;;;;;;12.60;65.31;92987.53;2022853;71;20230;-75
2024/04/05 07:05:38;;;;;;;16.63;5.35;;;;;;;12.95;64.22;92993.06;2022794;71;20153;-75
2024/04/05 07:08:05;;;;;;;14.43;4.10;;;;;;;13.19;63.47;92985.22;2022576;71;20153;-74
2024/04/05 07:10:32;;;;;;;7.07;4.20;;;;;;;13.52;62.71;92984.22;2022579;71;20153;-75
2024/04/05 07:12:58;;;;;;;8.48;4.35;;;;;;;13.89;62.70;92972.75;2022325;71;20129;-74
2024/04/05 07:15:23;;;;;;;10.23;5.05;;;;;;;13.99;61.19;92976.84;2022236;71;20188;-76
2024/04/05 07:17:51;;;;;;;7.55;2.88;;;;;;;14.17;60.03;92987.66;2022616;71;20523;-76
2024/04/05 07:20:20;;;;;;;7.65;2.40;;;;;;;14.40;59.68;92978.97;2022389;71;20136;-75
2024/04/05 07:22:46;;;;;;;8.77;3.58;;;;;;;14.38;59.36;92978.09;2022383;71;20165;-75
2024/04/05 07:25:12;;;;;;;7.07;3.40;;;;;;;14.08;59.90;92988.59;2022403;71;20149;-74
2024/04/05 07:27:37;;;;;;;7.38;3.13;;;;;;;14.16;59.31;92989.03;2022088;71;20190;-75
2024/04/05 07:30:04;;;;;;;10.65;4.72;;;;;;;14.49;58.96;92969.53;2025055;70;20192;-73
2024/04/05 07:32:30;;;;;;;5.35;3.00;;;;;;;14.56;58.45;92984.72;2028386;70;20157;-74
2024/04/05 07:34:55;;;;;;;9.18;3.25;;;;;;;14.40;58.53;92978.97;2028447;70;20247;-75
2024/04/05 07:37:21;;;;;;;8.55;2.90;;;;;;;14.86;56.76;92976.28;2028817;70;20152;-75
2024/04/05 07:39:50;;;;;;;7.07;3.20;;;;;;;14.87;56.23;92975.66;2028538;70;20271;-75
2024/04/05 07:42:16;;;;;;;7.03;2.58;;;;;;;15.35;55.20;92968.03;2028458;70;20135;-75
2024/04/05 07:44:43;;;;;;;5.05;2.30;;;;;;;15.74;54.84;92969.84;2028266;70;20141;-75
2024/04/05 07:47:09;;;;;;;4.72;2.53;;;;;;;15.62;54.21;92974.94;2028531;70;20566;-75
2024/04/05 07:49:35;;;;;;;5.82;2.95;;;;;;;15.97;53.66;92975.16;2028239;70;20217;-77
2024/04/05 07:52:01;;;;;;;7.95;3.08;;;;;;;15.75;54.22;92974.88;2028386;70;20148;-74
2024/04/05 07:54:26;;;;;;;8.95;3.50;;;;;;;16.26;53.18;92968.66;2028428;70;20140;-75
2024/04/05 07:56:52;;;;;;;6.10;2.70;;;;;;;16.35;52.59;92975.41;2024892;70;20192;-74
2024/04/05 07:59:18;;;;;;;2.88;1.90;;;;;;;16.38;51.85;92956.38;2028302;70;20152;-74
2024/04/05 08:01:44;;;;;;;4.57;1.85;;;;;;;16.97;50.39;92964.56;2028358;70;20558;-73
2024/04/05 08:04:11;;;;;;;3.08;1.27;;;;;;;17.22;48.44;92952.06;2028425;70;20569;-74
2024/04/05 08:06:37;;;;;;;4.22;1.60;;;;;;;17.62;48.25;92967.16;2028184;70;20172;-73
2024/04/05 08:09:02;;;;;;;1.58;1.20;;;;;;;17.78;47.10;92961.41;2028394;70;20149;-73
2024/04/05 08:11:28;;;;;;;3.47;1.50;;;;;;;17.98;47.55;92970.72;2028723;70;20244;-75
2024/04/05 08:13:54;;;;;;;2.40;1.52;;;;;;;18.01;48.28;92965.84;2028446;70;20196;-75
2024/04/05 08:16:20;;;;;;;6.88;1.70;;;;;;;18.10;47.41;92969.69;2028565;70;20156;-77
2024/04/05 08:18:46;;;;;;;2.50;1.70;;;;;;;17.82;47.19;92958.69;2028247;70;20161;-75
2024/04/05 08:21:11;;;;;;;1.67;1.50;;;;;;;17.50;48.50;92972.38;2028298;70;20152;-75
2024/04/05 08:23:37;;;;;;;4.45;1.80;;;;;;;18.32;47.65;92961.22;2028396;70;20224;-76
2024/04/05 08:26:03;;;;;;;5.05;1.70;;;;;;;18.35;46.70;92957.06;2028495;70;20155;-76
2024/04/05 08:28:29;;;;;;;2.92;1.50;;;;;;;18.67;46.86;92957.50;2028320;70;20148;-75
2024/04/05 08:30:55;;;;;;;2.42;1.60;;;;;;;18.85;45.27;92952.44;2028379;70;20271;-76
2024/04/05 08:33:21;;;;;;;3.22;1.10;;;;;;;18.70;46.22;92936.97;2024761;70;20140;-75
2024/04/05 08:35:54;;;;;;;2.15;1.10;;;;;;;18.88;44.94;92941.84;2028412;70;20586;-77
2024/04/05 08:38:19;;;;;;;2.50;1.20;;;;;;;19.21;44.44;92944.38;2028452;70;20141;-75
2024/04/05 08:40:45;;;;;;;2.40;1.25;;;;;;;19.14;44.01;92939.13;2028400;70;20187;-76
2024/04/05 08:43:15;;;;;;;3.35;1.30;;;;;;;18.81;44.76;92940.19;2024776;70;20228;-77
2024/04/05 08:45:42;;;;;;;1.48;1.15;;;;;;;19.53;44.10;92946.81;2028340;70;20581;-76
2024/04/05 08:48:08;;;;;;;1.85;1.50;;;;;;;19.80;44.69;92949.13;2024564;70;20121;-77
2024/04/05 08:50:35;;;;;;;2.05;1.40;;;;;;;20.16;43.67;92945.16;2028450;70;20159;-77
2024/04/05 08:53:01;;;;;;;2.40;1.30;;;;;;;20.20;43.35;92951.72;2028068;70;20156;-77
2024/04/05 08:55:27;;;;;;;2.90;1.30;;;;;;;20.92;43.82;92959.44;2028266;70;20451;-76
2024/04/05 08:57:55;;;;;;;3.67;1.60;;;;;;;21.26;42.87;92968.22;2024604;70;20168;-77
2024/04/05 09:00:24;;;;;;;1.10;1.00;;;;;;;21.23;43.32;92969.56;2028130;70;20156;-75
2024/04/05 09:02:54;;;;;;;1.98;1.20;;;;;;;20.77;41.71;92961.19;2028258;70;20144;-75
2024/04/05 09:05:22;;;;;;;4.28;1.83;;;;;;;22.36;40.59;92947.13;2024682;70;20340;-73
2024/04/05 09:07:50;;;;;;;2.45;1.30;;;;;;;22.10;41.44;92962.34;2024923;70;20237;-75
2024/04/05 09:10:19;;;;;;;1.48;1.00;;;;;;;22.19;39.94;92966.13;2028553;70;20149;-75
2024/04/05 09:12:57;;;;;;;2.25;1.27;;;;;;;22.43;41.01;92966.66;2028193;70;20191;-74
2024/04/05 09:15:28;;;;;;;2.35;1.42;;;;;;;22.36;40.44;92970.06;2028150;70;20141;-75
2024/04/05 09:17:54;;;;;;;1.30;1.20;;;;;;;23.05;40.66;92963.59;2028251;70;20227;-75
2024/04/05 09:20:25;;;;;;;1.40;1.20;;;;;;;23.56;38.72;92960.88;2028638;70;20145;-74
2024/04/05 09:23:06;;;;;;;1.65;1.00;;;;;;;23.37;38.32;92939.75;2028552;70;20212;-75
2024/04/05 09:25:38;;;;;;;2.65;1.15;;;;;;;22.12;38.89;92942.31;2028786;70;20222;-75
2024/04/05 09:28:08;;;;;;;2.80;1.30;;;;;;;22.92;39.22;92930.34;2028667;70;20248;-75
2024/04/05 09:30:35;;;;;;;2.78;2.17;;;;;;;23.88;38.45;92917.59;2028609;70;20165;-75
2024/04/05 09:33:01;;;;;;;3.28;1.17;;;;;;;24.70;36.53;92907.88;2028810;70;20121;-74
2024/04/05 09:35:28;;;;;;;1.58;1.00;;;;;;;24.43;35.94;92906.13;2028799;70;20223;-77
2024/04/05 09:37:54;;;;;;;2.03;1.38;;;;;;;24.69;35.98;92903.53;2028756;70;20188;-77
2024/04/05 09:40:23;;;;;;;2.35;1.38;;;;;;;24.85;36.06;92900.84;2028440;70;20145;-76
2024/04/05 09:42:53;;;;;;;3.33;1.83;;;;;;;23.80;36.55;92888.72;2028649;70;20618;-75
2024/04/05 09:45:25;;;;;;;2.55;1.20;;;;;;;23.81;37.38;92888.00;2028819;70;20184;-77
2024/04/05 09:47:52;;;;;;;3.25;1.27;;;;;;;24.42;37.81;92899.66;2025279;70;20176;-76
2024/04/05 09:50:21;;;;;;;2.78;0.98;;;;;;;25.02;34.65;92904.63;2028856;70;20188;-76
2024/04/05 09:52:52;;;;;;;2.47;1.25;;;;;;;25.32;36.20;92912.84;2028795;70;20153;-76
2024/04/05 09:55:23;;;;;;;1.13;1.00;;;;;;;26.53;35.05;92920.22;2028668;70;20141;-76
2024/04/05 09:57:49;;;;;;;3.03;1.20;;;;;;;26.19;34.30;92900.53;2028759;70;20157;-76
2024/04/05 10:00:20;;;;;;;2.15;0.90;;;;;;;24.75;33.52;92918.00;2022367;70;20136;-73
2024/04/05 10:02:49;;;;;;;4.10;1.20;;;;;;;25.76;33.05;92919.72;2028620;70;20145;-75
2024/04/05 10:05:29;;;;;;;1.20;1.05;;;;;;;26.83;34.00;92921.78;2028722;70;20161;-77
2024/04/05 10:07:56;;;;;;;2.10;0.98;;;;;;;27.36;30.83;92913.28;2028651;70;20163;-77
2024/04/05 10:10:34;;;;;;;1.55;0.90;;;;;;;27.05;32.06;92906.69;2028747;70;20562;-76
2024/04/05 10:13:30;;;;;;;2.83;1.10;;;;;;;26.92;31.70;92902.31;2028694;70;20153;-76
2024/04/05 10:15:59;;;;;;;1.35;1.00;;;;;;;27.61;32.06;92903.16;2017694;71;20200;-77
2024/04/05 10:18:26;;;;;;;1.42;1.00;;;;;;;27.08;32.38;92891.56;2017908;71;20515;-79
2024/04/05 10:21:03;;;;;;;1.30;0.90;;;;;;;28.35;30.43;92889.34;2015162;71;20185;-75
2024/04/05 10:23:29;;;;;;;3.85;1.10;;;;;;;29.19;30.18;92888.31;2017915;71;20188;-77
2024/04/05 10:25:56;;;;;;;1.20;0.85;;;;;;;28.83;31.31;92890.63;2017919;71;20145;-74
2024/04/05 10:28:23;;;;;;;1.00;0.77;;;;;;;30.22;28.57;92900.59;2017708;71;20247;-76
2024/04/05 10:30:49;;;;;;;1.00;0.70;;;;;;;28.80;28.13;92889.19;2017765;71;20149;-77
2024/04/05 10:33:19;;;;;;;2.22;1.10;;;;;;;29.84;27.87;92888.56;2017662;71;20153;-76
2024/04/05 10:35:46;;;;;;;2.47;0.80;;;;;;;30.98;27.91;92894.69;2017867;71;20295;-77
2024/04/05 10:38:13;;;;;;;1.50;0.85;;;;;;;31.49;28.07;92899.81;2017885;71;20146;-75
2024/04/05 10:40:39;;;;;;;2.35;1.10;;;;;;;30.62;27.11;92888.53;2017990;71;20148;-75
2024/04/05 10:43:12;;;;;;;1.50;0.88;;;;;;;32.60;27.47;92879.03;2015150;71;20161;-77
2024/04/05 10:45:39;;;;;;;2.30;0.70;;;;;;;33.53;25.45;92908.47;2017962;71;20134;-77
2024/04/05 10:48:05;;;;;;;1.17;0.60;;;;;;;31.12;25.32;92895.19;2015206;71;20176;-75
2024/04/05 10:50:37;;;;;;;0.68;0.60;;;;;;;32.04;26.22;92898.97;2017926;71;20598;-77
2024/04/05 10:53:04;;;;;;;;;;;;;;;30.29;27.39;92891.09;2026859;70;20175;-76
2024/04/05 10:55:31;;;;;;;1.42;0.95;;;;;;;32.10;26.62;92895.94;2028736;70;20470;-76
2024/04/05 10:58:01;;;;;;;2.65;0.90;;;;;;;33.35;24.93;92897.19;2024996;70;20141;-77
2024/04/05 11:00:27;;;;;;;3.60;1.00;;;;;;;33.66;25.15;92894.31;2028659;70;20149;-78
2024/04/05 11:02:54;;;;;;;2.00;1.00;;;;;;;34.34;24.05;92899.25;2028667;70;20147;-79
2024/04/05 11:05:24;;;;;;;1.10;0.80;;;;;;;32.67;25.41;92889.09;2027668;70;20125;-77
2024/04/05 11:08:02;;;;;;;2.97;0.93;;;;;;;33.81;24.73;92883.00;2027944;70;20249;-76
2024/04/05 11:10:36;;;;;;;2.95;0.80;;;;;;;34.48;23.50;92880.66;2028419;70;20168;-77
2024/04/05 11:13:20;;;;;;;1.00;0.70;;;;;;;34.54;23.68;92884.13;2028269;70;20164;-76
2024/04/05 11:15:47;;;;;;;1.40;0.80;;;;;;;35.97;23.99;92879.25;2027917;70;20156;-75
2024/04/05 11:18:16;;;;;;;2.67;0.98;;;;;;;35.06;22.99;92865.91;2028137;70;20148;-73
2024/04/05 11:20:47;;;;;;;1.08;0.73;;;;;;;37.02;22.00;92874.19;2028083;70;20607;-75
2024/04/05 11:23:16;;;;;;;1.20;0.70;;;;;;;37.52;20.94;92874.53;2024625;70;20228;-75
2024/04/05 11:25:52;;;;;;;2.42;0.80;;;;;;;39.41;21.96;92864.44;2027964;70;20149;-75
2024/04/05 11:28:22;;;;;;;1.58;0.80;;;;;;;37.05;22.31;92852.78;2024462;70;20255;-74
2024/04/05 11:30:48;;;;;;;3.40;0.85;;;;;;;36.78;23.60;92858.19;2028290;70;20195;-75
2024/04/05 11:33:14;;;;;;;3.22;0.90;;;;;;;40.62;20.52;92854.19;2028339;70;20376;-76